sensor_id;sensor_type;location;lat;lon;timestamp;P1;durP1;ratioP1;P2;durP2;ratioP2
35074;SDS011;21260;34.984;32.490;2023-04-03T00:01:16;16.10;;;2.78;;
35074;SDS011;21260;34.984;32.490;2023-04-03T00:03:43;15.50;;;2.75;;
35074;SDS011;21260;34.984;32.490;2023-04-03T00:06:10;15.38;;;3.20;;
35074;SDS011;21260;34.984;32.490;2023-04-03T00:08:37;14.18;;;3.10;;
35074;SDS011;21260;34.984;32.490;2023-04-03T00:11:04;17.58;;;3.22;;
35074;SDS011;21260;34.984;32.490;2023-04-03T00:13:31;13.00;;;2.90;;
35074;SDS011;21260;34.984;32.490;2023-04-03T00:15:59;13.35;;;2.95;;
35074;SDS011;21260;34.984;32.490;2023-04-03T00:18:26;12.70;;;2.67;;
35074;SDS011;21260;34.984;32.490;2023-04-03T00:20:53;12.02;;;2.83;;
35074;SDS011;21260;34.984;32.490;2023-04-03T00:23:19;13.67;;;2.93;;
35074;SDS011;21260;34.984;32.490;2023-04-03T00:25:46;9.40;;;2.60;;
35074;SDS011;21260;34.984;32.490;2023-04-03T00:28:12;13.75;;;3.00;;
35074;SDS011;21260;34.984;32.490;2023-04-03T00:30:38;15.45;;;3.28;;
35074;SDS011;21260;34.984;32.490;2023-04-03T00:33:05;14.48;;;3.10;;
35074;SDS011;21260;34.984;32.490;2023-04-03T00:35:31;13.40;;;2.97;;
35074;SDS011;21260;34.984;32.490;2023-04-03T00:38:00;12.52;;;2.60;;
35074;SDS011;21260;34.984;32.490;2023-04-03T00:40:26;14.45;;;2.90;;
35074;SDS011;21260;34.984;32.490;2023-04-03T00:43:14;11.82;;;2.80;;
35074;SDS011;21260;34.984;32.490;2023-04-03T00:45:49;11.80;;;2.72;;
35074;SDS011;21260;34.984;32.490;2023-04-03T00:48:20;11.68;;;2.65;;
35074;SDS011;21260;34.984;32.490;2023-04-03T00:50:59;13.25;;;3.03;;
35074;SDS011;21260;34.984;32.490;2023-04-03T00:56:21;15.40;;;2.67;;
35074;SDS011;21260;34.984;32.490;2023-04-03T00:58:57;14.67;;;2.87;;
35074;SDS011;21260;34.984;32.490;2023-04-03T01:01:31;12.27;;;3.00;;
35074;SDS011;21260;34.984;32.490;2023-04-03T01:04:01;13.40;;;2.92;;
35074;SDS011;21260;34.984;32.490;2023-04-03T01:06:29;12.10;;;2.88;;
35074;SDS011;21260;34.984;32.490;2023-04-03T01:09:02;13.60;;;2.83;;
35074;SDS011;21260;34.984;32.490;2023-04-03T01:11:30;12.63;;;2.47;;
35074;SDS011;21260;34.984;32.490;2023-04-03T01:13:56;12.15;;;2.50;;
35074;SDS011;21260;34.984;32.490;2023-04-03T01:16:22;13.10;;;2.72;;
35074;SDS011;21260;34.984;32.490;2023-04-03T01:18:48;11.18;;;2.60;;
35074;SDS011;21260;34.984;32.490;2023-04-03T01:26:58;14.93;;;2.60;;
35074;SDS011;21260;34.984;32.490;2023-04-03T01:29:29;14.60;;;2.85;;
35074;SDS011;21260;34.984;32.490;2023-04-03T01:31:56;13.25;;;2.45;;
35074;SDS011;21260;34.984;32.490;2023-04-03T01:34:25;13.87;;;2.83;;
35074;SDS011;21260;34.984;32.490;2023-04-03T01:36:54;10.32;;;2.67;;
35074;SDS011;21260;34.984;32.490;2023-04-03T01:39:21;13.87;;;2.57;;
35074;SDS011;21260;34.984;32.490;2023-04-03T01:41:48;13.97;;;2.80;;
35074;SDS011;21260;34.984;32.490;2023-04-03T01:44:14;13.75;;;2.90;;
35074;SDS011;21260;34.984;32.490;2023-04-03T01:46:44;13.05;;;2.60;;
35074;SDS011;21260;34.984;32.490;2023-04-03T01:49:11;16.05;;;2.95;;
35074;SDS011;21260;34.984;32.490;2023-04-03T01:51:37;14.43;;;2.67;;
35074;SDS011;21260;34.984;32.490;2023-04-03T01:54:03;13.95;;;2.80;;
35074;SDS011;21260;34.984;32.490;2023-04-03T01:56:30;13.05;;;2.97;;
35074;SDS011;21260;34.984;32.490;2023-04-03T01:58:56;13.63;;;3.10;;
35074;SDS011;21260;34.984;32.490;2023-04-03T02:01:22;16.60;;;2.90;;
35074;SDS011;21260;34.984;32.490;2023-04-03T02:03:49;12.95;;;3.20;;
35074;SDS011;21260;34.984;32.490;2023-04-03T02:06:16;12.63;;;2.83;;
35074;SDS011;21260;34.984;32.490;2023-04-03T02:08:42;13.48;;;2.95;;
35074;SDS011;21260;34.984;32.490;2023-04-03T02:11:08;14.57;;;2.70;;
35074;SDS011;21260;34.984;32.490;2023-04-03T02:13:35;14.05;;;3.38;;
35074;SDS011;21260;34.984;32.490;2023-04-03T02:16:08;13.82;;;2.53;;
35074;SDS011;21260;34.984;32.490;2023-04-03T02:18:36;15.10;;;2.83;;
35074;SDS011;21260;34.984;32.490;2023-04-03T02:21:03;12.82;;;3.00;;
35074;SDS011;21260;34.984;32.490;2023-04-03T02:23:29;13.30;;;3.17;;
35074;SDS011;21260;34.984;32.490;2023-04-03T02:26:02;16.90;;;2.97;;
35074;SDS011;21260;34.984;32.490;2023-04-03T02:28:35;13.85;;;2.90;;
35074;SDS011;21260;34.984;32.490;2023-04-03T02:31:02;15.80;;;3.03;;
35074;SDS011;21260;34.984;32.490;2023-04-03T02:33:31;9.27;;;2.60;;
35074;SDS011;21260;34.984;32.490;2023-04-03T02:35:58;12.90;;;2.95;;
35074;SDS011;21260;34.984;32.490;2023-04-03T02:38:24;9.73;;;2.50;;
35074;SDS011;21260;34.984;32.490;2023-04-03T02:40:51;15.52;;;3.08;;
35074;SDS011;21260;34.984;32.490;2023-04-03T02:43:17;15.32;;;2.90;;
35074;SDS011;21260;34.984;32.490;2023-04-03T02:45:44;11.68;;;2.83;;
35074;SDS011;21260;34.984;32.490;2023-04-03T02:48:10;12.70;;;2.60;;
35074;SDS011;21260;34.984;32.490;2023-04-03T02:50:37;15.33;;;2.83;;
35074;SDS011;21260;34.984;32.490;2023-04-03T02:53:03;15.55;;;2.58;;
35074;SDS011;21260;34.984;32.490;2023-04-03T02:55:29;15.93;;;3.30;;
35074;SDS011;21260;34.984;32.490;2023-04-03T02:57:56;13.52;;;2.80;;
35074;SDS011;21260;34.984;32.490;2023-04-03T03:00:25;11.00;;;2.60;;
35074;SDS011;21260;34.984;32.490;2023-04-03T03:02:52;12.73;;;2.72;;
35074;SDS011;21260;34.984;32.490;2023-04-03T03:05:18;13.88;;;2.65;;
35074;SDS011;21260;34.984;32.490;2023-04-03T03:07:44;15.00;;;3.17;;
35074;SDS011;21260;34.984;32.490;2023-04-03T03:10:10;11.10;;;2.87;;
35074;SDS011;21260;34.984;32.490;2023-04-03T03:12:37;8.48;;;2.53;;
35074;SDS011;21260;34.984;32.490;2023-04-03T03:15:04;14.15;;;2.95;;
35074;SDS011;21260;34.984;32.490;2023-04-03T03:17:31;14.13;;;2.72;;
35074;SDS011;21260;34.984;32.490;2023-04-03T03:19:57;11.65;;;2.63;;
35074;SDS011;21260;34.984;32.490;2023-04-03T03:22:23;10.20;;;2.60;;
35074;SDS011;21260;34.984;32.490;2023-04-03T03:24:51;15.75;;;3.08;;
35074;SDS011;21260;34.984;32.490;2023-04-03T03:27:18;13.20;;;2.60;;
35074;SDS011;21260;34.984;32.490;2023-04-03T03:29:44;11.15;;;2.50;;
35074;SDS011;21260;34.984;32.490;2023-04-03T03:32:10;14.07;;;3.03;;
35074;SDS011;21260;34.984;32.490;2023-04-03T03:34:36;15.45;;;2.95;;
35074;SDS011;21260;34.984;32.490;2023-04-03T03:37:03;16.23;;;3.00;;
35074;SDS011;21260;34.984;32.490;2023-04-03T03:39:29;14.65;;;2.58;;
35074;SDS011;21260;34.984;32.490;2023-04-03T03:41:55;15.57;;;3.20;;
35074;SDS011;21260;34.984;32.490;2023-04-03T03:44:22;14.82;;;2.75;;
35074;SDS011;21260;34.984;32.490;2023-04-03T03:46:48;11.73;;;2.67;;
35074;SDS011;21260;34.984;32.490;2023-04-03T03:49:14;14.33;;;2.90;;
35074;SDS011;21260;34.984;32.490;2023-04-03T03:51:40;12.15;;;2.55;;
35074;SDS011;21260;34.984;32.490;2023-04-03T03:54:07;9.43;;;2.58;;
35074;SDS011;21260;34.984;32.490;2023-04-03T03:56:34;14.63;;;2.90;;
35074;SDS011;21260;34.984;32.490;2023-04-03T03:59:01;12.90;;;2.60;;
35074;SDS011;21260;34.984;32.490;2023-04-03T04:01:27;18.45;;;3.05;;
35074;SDS011;21260;34.984;32.490;2023-04-03T04:03:53;15.32;;;3.00;;
35074;SDS011;21260;34.984;32.490;2023-04-03T04:06:20;13.68;;;2.83;;
35074;SDS011;21260;34.984;32.490;2023-04-03T04:08:46;13.00;;;3.00;;
35074;SDS011;21260;34.984;32.490;2023-04-03T04:11:13;16.30;;;2.70;;
35074;SDS011;21260;34.984;32.490;2023-04-03T04:13:42;13.00;;;2.53;;
35074;SDS011;21260;34.984;32.490;2023-04-03T04:16:08;12.50;;;2.65;;
35074;SDS011;21260;34.984;32.490;2023-04-03T04:18:35;13.00;;;2.67;;
35074;SDS011;21260;34.984;32.490;2023-04-03T04:21:01;14.55;;;2.67;;
35074;SDS011;21260;34.984;32.490;2023-04-03T04:23:27;12.70;;;2.63;;
35074;SDS011;21260;34.984;32.490;2023-04-03T04:25:53;15.52;;;2.75;;
35074;SDS011;21260;34.984;32.490;2023-04-03T04:28:20;11.77;;;2.50;;
35074;SDS011;21260;34.984;32.490;2023-04-03T05:00:13;11.52;;;2.58;;
35074;SDS011;21260;34.984;32.490;2023-04-03T05:02:40;13.38;;;2.53;;
35074;SDS011;21260;34.984;32.490;2023-04-03T05:05:07;12.73;;;2.88;;
35074;SDS011;21260;34.984;32.490;2023-04-03T05:07:33;12.48;;;2.45;;
35074;SDS011;21260;34.984;32.490;2023-04-03T05:10:00;12.05;;;2.60;;
35074;SDS011;21260;34.984;32.490;2023-04-03T05:12:28;11.70;;;2.38;;
35074;SDS011;21260;34.984;32.490;2023-04-03T05:14:54;11.68;;;2.40;;
35074;SDS011;21260;34.984;32.490;2023-04-03T05:17:21;10.95;;;2.72;;
35074;SDS011;21260;34.984;32.490;2023-04-03T05:19:47;15.68;;;2.97;;
35074;SDS011;21260;34.984;32.490;2023-04-03T05:22:13;12.23;;;3.00;;
35074;SDS011;21260;34.984;32.490;2023-04-03T05:24:40;12.45;;;2.90;;
35074;SDS011;21260;34.984;32.490;2023-04-03T05:27:06;11.57;;;2.60;;
35074;SDS011;21260;34.984;32.490;2023-04-03T05:29:32;13.60;;;3.25;;
35074;SDS011;21260;34.984;32.490;2023-04-03T05:31:58;12.23;;;2.53;;
35074;SDS011;21260;34.984;32.490;2023-04-03T05:34:25;10.20;;;3.28;;
35074;SDS011;21260;34.984;32.490;2023-04-03T05:36:51;14.73;;;3.85;;
35074;SDS011;21260;34.984;32.490;2023-04-03T05:39:18;17.33;;;4.20;;
35074;SDS011;21260;34.984;32.490;2023-04-03T05:41:44;16.17;;;4.00;;
35074;SDS011;21260;34.984;32.490;2023-04-03T05:44:10;13.40;;;3.45;;
35074;SDS011;21260;34.984;32.490;2023-04-03T05:46:36;11.40;;;3.00;;
35074;SDS011;21260;34.984;32.490;2023-04-03T05:49:03;11.03;;;3.20;;
35074;SDS011;21260;34.984;32.490;2023-04-03T05:51:30;9.27;;;2.80;;
35074;SDS011;21260;34.984;32.490;2023-04-03T05:54:04;10.55;;;2.72;;
35074;SDS011;21260;34.984;32.490;2023-04-03T05:56:53;13.18;;;2.75;;
35074;SDS011;21260;34.984;32.490;2023-04-03T05:59:20;12.48;;;2.65;;
35074;SDS011;21260;34.984;32.490;2023-04-03T06:01:47;13.25;;;3.50;;
35074;SDS011;21260;34.984;32.490;2023-04-03T06:04:13;9.40;;;2.95;;
35074;SDS011;21260;34.984;32.490;2023-04-03T06:06:52;17.50;;;3.20;;
35074;SDS011;21260;34.984;32.490;2023-04-03T06:09:22;11.95;;;3.22;;
35074;SDS011;21260;34.984;32.490;2023-04-03T06:11:51;13.48;;;2.90;;
35074;SDS011;21260;34.984;32.490;2023-04-03T06:14:18;12.65;;;2.90;;
35074;SDS011;21260;34.984;32.490;2023-04-03T06:16:45;11.98;;;2.67;;
35074;SDS011;21260;34.984;32.490;2023-04-03T06:19:11;11.77;;;2.67;;
35074;SDS011;21260;34.984;32.490;2023-04-03T06:21:38;11.48;;;2.70;;
35074;SDS011;21260;34.984;32.490;2023-04-03T06:24:04;15.57;;;3.13;;
35074;SDS011;21260;34.984;32.490;2023-04-03T06:26:33;11.48;;;2.80;;
35074;SDS011;21260;34.984;32.490;2023-04-03T06:28:59;15.50;;;3.30;;
35074;SDS011;21260;34.984;32.490;2023-04-03T06:31:27;11.85;;;2.58;;
35074;SDS011;21260;34.984;32.490;2023-04-03T06:33:53;14.55;;;3.08;;
35074;SDS011;21260;34.984;32.490;2023-04-03T06:36:22;12.10;;;2.80;;
35074;SDS011;21260;34.984;32.490;2023-04-03T06:38:49;15.00;;;3.10;;
35074;SDS011;21260;34.984;32.490;2023-04-03T06:41:16;14.10;;;3.15;;
35074;SDS011;21260;34.984;32.490;2023-04-03T06:43:45;11.85;;;2.75;;
35074;SDS011;21260;34.984;32.490;2023-04-03T06:46:18;15.07;;;2.97;;
35074;SDS011;21260;34.984;32.490;2023-04-03T06:48:47;13.15;;;2.72;;
35074;SDS011;21260;34.984;32.490;2023-04-03T06:51:19;17.02;;;2.63;;
35074;SDS011;21260;34.984;32.490;2023-04-03T06:53:51;13.60;;;2.65;;
35074;SDS011;21260;34.984;32.490;2023-04-03T06:56:20;14.57;;;2.77;;
35074;SDS011;21260;34.984;32.490;2023-04-03T06:58:47;14.17;;;2.50;;
35074;SDS011;21260;34.984;32.490;2023-04-03T07:01:16;15.00;;;2.53;;
35074;SDS011;21260;34.984;32.490;2023-04-03T07:03:46;16.07;;;2.77;;
35074;SDS011;21260;34.984;32.490;2023-04-03T07:06:16;11.07;;;2.75;;
35074;SDS011;21260;34.984;32.490;2023-04-03T07:08:44;15.25;;;2.83;;
35074;SDS011;21260;34.984;32.490;2023-04-03T07:11:11;16.60;;;2.70;;
35074;SDS011;21260;34.984;32.490;2023-04-03T07:13:42;10.90;;;2.83;;
35074;SDS011;21260;34.984;32.490;2023-04-03T07:16:09;11.25;;;2.60;;
35074;SDS011;21260;34.984;32.490;2023-04-03T07:18:36;10.73;;;2.40;;
35074;SDS011;21260;34.984;32.490;2023-04-03T07:21:02;12.03;;;2.53;;
35074;SDS011;21260;34.984;32.490;2023-04-03T07:23:29;14.75;;;2.72;;
35074;SDS011;21260;34.984;32.490;2023-04-03T07:25:56;15.13;;;3.05;;
35074;SDS011;21260;34.984;32.490;2023-04-03T07:28:22;13.60;;;3.10;;
35074;SDS011;21260;34.984;32.490;2023-04-03T07:30:50;14.60;;;3.13;;
35074;SDS011;21260;34.984;32.490;2023-04-03T07:33:29;14.15;;;2.90;;
35074;SDS011;21260;34.984;32.490;2023-04-03T07:35:56;11.93;;;2.70;;
35074;SDS011;21260;34.984;32.490;2023-04-03T07:38:23;12.93;;;2.67;;
35074;SDS011;21260;34.984;32.490;2023-04-03T07:40:50;16.02;;;3.90;;
35074;SDS011;21260;34.984;32.490;2023-04-03T07:43:18;13.95;;;3.30;;
35074;SDS011;21260;34.984;32.490;2023-04-03T07:45:46;15.68;;;4.90;;
35074;SDS011;21260;34.984;32.490;2023-04-03T07:48:23;19.27;;;6.10;;
35074;SDS011;21260;34.984;32.490;2023-04-03T07:50:51;13.45;;;3.65;;
35074;SDS011;21260;34.984;32.490;2023-04-03T07:53:18;15.70;;;4.80;;
35074;SDS011;21260;34.984;32.490;2023-04-03T07:55:48;11.43;;;3.83;;
35074;SDS011;21260;34.984;32.490;2023-04-03T07:58:17;17.80;;;5.35;;
35074;SDS011;21260;34.984;32.490;2023-04-03T08:00:44;18.80;;;4.75;;
35074;SDS011;21260;34.984;32.490;2023-04-03T08:03:12;16.65;;;5.15;;
35074;SDS011;21260;34.984;32.490;2023-04-03T08:05:41;17.13;;;4.65;;
35074;SDS011;21260;34.984;32.490;2023-04-03T08:08:11;15.43;;;4.22;;
35074;SDS011;21260;34.984;32.490;2023-04-03T08:10:41;18.25;;;4.00;;
35074;SDS011;21260;34.984;32.490;2023-04-03T08:13:08;14.75;;;3.65;;
35074;SDS011;21260;34.984;32.490;2023-04-03T08:15:35;14.38;;;3.05;;
35074;SDS011;21260;34.984;32.490;2023-04-03T08:18:05;17.08;;;3.58;;
35074;SDS011;21260;34.984;32.490;2023-04-03T08:20:31;19.73;;;3.97;;
35074;SDS011;21260;34.984;32.490;2023-04-03T08:22:57;14.48;;;3.53;;
35074;SDS011;21260;34.984;32.490;2023-04-03T08:25:24;19.67;;;3.47;;
35074;SDS011;21260;34.984;32.490;2023-04-03T08:27:51;13.77;;;3.15;;
35074;SDS011;21260;34.984;32.490;2023-04-03T08:30:18;15.35;;;3.53;;
35074;SDS011;21260;34.984;32.490;2023-04-03T08:32:44;18.17;;;3.08;;
35074;SDS011;21260;34.984;32.490;2023-04-03T08:35:13;16.10;;;3.55;;
35074;SDS011;21260;34.984;32.490;2023-04-03T08:37:39;14.55;;;3.42;;
35074;SDS011;21260;34.984;32.490;2023-04-03T08:40:07;15.75;;;3.60;;
35074;SDS011;21260;34.984;32.490;2023-04-03T08:48:14;12.75;;;3.25;;
35074;SDS011;21260;34.984;32.490;2023-04-03T08:50:47;12.52;;;3.03;;
35074;SDS011;21260;34.984;32.490;2023-04-03T08:53:39;16.27;;;3.40;;
35074;SDS011;21260;34.984;32.490;2023-04-03T08:56:13;12.23;;;2.80;;
35074;SDS011;21260;34.984;32.490;2023-04-03T08:58:50;13.23;;;2.75;;
35074;SDS011;21260;34.984;32.490;2023-04-03T09:01:27;9.57;;;2.58;;
35074;SDS011;21260;34.984;32.490;2023-04-03T09:03:56;16.70;;;3.13;;
35074;SDS011;21260;34.984;32.490;2023-04-03T09:06:26;14.37;;;3.00;;
35074;SDS011;21260;34.984;32.490;2023-04-03T09:09:12;13.27;;;2.92;;
35074;SDS011;21260;34.984;32.490;2023-04-03T09:12:12;13.90;;;3.23;;
35074;SDS011;21260;34.984;32.490;2023-04-03T09:17:57;11.82;;;2.92;;
35074;SDS011;21260;34.984;32.490;2023-04-03T09:23:20;14.70;;;3.20;;
35074;SDS011;21260;34.984;32.490;2023-04-03T09:26:02;13.10;;;3.08;;
35074;SDS011;21260;34.984;32.490;2023-04-03T09:28:40;12.68;;;2.95;;
35074;SDS011;21260;34.984;32.490;2023-04-03T09:31:26;16.83;;;2.97;;
35074;SDS011;21260;34.984;32.490;2023-04-03T09:34:05;11.68;;;2.70;;
35074;SDS011;21260;34.984;32.490;2023-04-03T09:36:51;12.70;;;2.80;;
35074;SDS011;21260;34.984;32.490;2023-04-03T09:39:25;15.18;;;2.90;;
35074;SDS011;21260;34.984;32.490;2023-04-03T09:44:34;12.57;;;2.85;;
35074;SDS011;21260;34.984;32.490;2023-04-03T09:49:48;12.57;;;2.78;;
35074;SDS011;21260;34.984;32.490;2023-04-03T09:52:22;14.68;;;3.20;;
35074;SDS011;21260;34.984;32.490;2023-04-03T09:54:51;13.13;;;3.10;;
35074;SDS011;21260;34.984;32.490;2023-04-03T09:57:18;11.85;;;2.83;;
35074;SDS011;21260;34.984;32.490;2023-04-03T09:59:56;14.05;;;3.10;;
35074;SDS011;21260;34.984;32.490;2023-04-03T10:02:30;14.52;;;2.80;;
35074;SDS011;21260;34.984;32.490;2023-04-03T10:05:04;9.87;;;2.80;;
35074;SDS011;21260;34.984;32.490;2023-04-03T10:10:38;14.27;;;2.90;;
35074;SDS011;21260;34.984;32.490;2023-04-03T10:13:13;15.02;;;3.42;;
35074;SDS011;21260;34.984;32.490;2023-04-03T10:15:51;14.10;;;3.38;;
35074;SDS011;21260;34.984;32.490;2023-04-03T10:21:59;13.73;;;3.43;;
35074;SDS011;21260;34.984;32.490;2023-04-03T10:28:05;11.38;;;3.10;;
35074;SDS011;21260;34.984;32.490;2023-04-03T10:36:56;13.17;;;3.10;;
35074;SDS011;21260;34.984;32.490;2023-04-03T10:42:38;12.55;;;3.30;;
35074;SDS011;21260;34.984;32.490;2023-04-03T10:45:20;15.57;;;3.13;;
35074;SDS011;21260;34.984;32.490;2023-04-03T10:50:25;12.85;;;3.15;;
35074;SDS011;21260;34.984;32.490;2023-04-03T10:58:58;11.75;;;3.00;;
35074;SDS011;21260;34.984;32.490;2023-04-03T11:01:42;7.57;;;2.70;;
35074;SDS011;21260;34.984;32.490;2023-04-03T11:04:17;8.05;;;2.72;;
35074;SDS011;21260;34.984;32.490;2023-04-03T11:09:26;13.40;;;3.10;;
35074;SDS011;21260;34.984;32.490;2023-04-03T11:12:06;13.07;;;3.50;;
35074;SDS011;21260;34.984;32.490;2023-04-03T11:14:42;11.43;;;3.27;;
35074;SDS011;21260;34.984;32.490;2023-04-03T11:20:10;11.55;;;3.10;;
35074;SDS011;21260;34.984;32.490;2023-04-03T11:25:43;12.47;;;3.10;;
35074;SDS011;21260;34.984;32.490;2023-04-03T11:28:14;13.40;;;3.47;;
35074;SDS011;21260;34.984;32.490;2023-04-03T11:36:59;11.68;;;3.10;;
35074;SDS011;21260;34.984;32.490;2023-04-03T11:39:33;12.13;;;3.10;;
35074;SDS011;21260;34.984;32.490;2023-04-03T11:43:05;13.45;;;3.20;;
35074;SDS011;21260;34.984;32.490;2023-04-03T11:51:00;14.98;;;3.58;;
35074;SDS011;21260;34.984;32.490;2023-04-03T11:53:41;15.93;;;3.20;;
35074;SDS011;21260;34.984;32.490;2023-04-03T12:01:43;11.43;;;2.70;;
35074;SDS011;21260;34.984;32.490;2023-04-03T12:04:26;11.05;;;2.90;;
35074;SDS011;21260;34.984;32.490;2023-04-03T12:07:11;10.88;;;2.70;;
35074;SDS011;21260;34.984;32.490;2023-04-03T12:15:24;14.70;;;3.20;;
35074;SDS011;21260;34.984;32.490;2023-04-03T12:21:10;14.40;;;3.20;;
35074;SDS011;21260;34.984;32.490;2023-04-03T12:32:07;13.93;;;2.97;;
35074;SDS011;21260;34.984;32.490;2023-04-03T12:35:34;14.63;;;3.07;;
35074;SDS011;21260;34.984;32.490;2023-04-03T12:46:52;15.63;;;3.27;;
35074;SDS011;21260;34.984;32.490;2023-04-03T12:55:12;16.37;;;3.10;;
35074;SDS011;21260;34.984;32.490;2023-04-03T12:57:45;14.60;;;3.30;;
35074;SDS011;21260;34.984;32.490;2023-04-03T13:03:04;16.58;;;3.53;;
35074;SDS011;21260;34.984;32.490;2023-04-03T13:05:44;15.20;;;3.03;;
35074;SDS011;21260;34.984;32.490;2023-04-03T13:08:12;16.27;;;3.35;;
35074;SDS011;21260;34.984;32.490;2023-04-03T13:10:51;11.45;;;2.90;;
35074;SDS011;21260;34.984;32.490;2023-04-03T13:13:21;16.80;;;3.42;;
35074;SDS011;21260;34.984;32.490;2023-04-03T13:15:48;17.02;;;3.40;;
35074;SDS011;21260;34.984;32.490;2023-04-03T13:18:27;14.50;;;3.05;;
35074;SDS011;21260;34.984;32.490;2023-04-03T13:21:06;11.35;;;2.90;;
35074;SDS011;21260;34.984;32.490;2023-04-03T13:23:42;12.20;;;2.93;;
35074;SDS011;21260;34.984;32.490;2023-04-03T13:26:15;15.75;;;3.05;;
35074;SDS011;21260;34.984;32.490;2023-04-03T13:28:43;9.82;;;2.60;;
35074;SDS011;21260;34.984;32.490;2023-04-03T13:33:39;13.48;;;3.00;;
35074;SDS011;21260;34.984;32.490;2023-04-03T13:36:35;13.32;;;2.92;;
35074;SDS011;21260;34.984;32.490;2023-04-03T13:41:43;12.25;;;3.00;;
35074;SDS011;21260;34.984;32.490;2023-04-03T13:46:52;12.00;;;2.70;;
35074;SDS011;21260;34.984;32.490;2023-04-03T13:51:57;14.25;;;3.00;;
35074;SDS011;21260;34.984;32.490;2023-04-03T13:54:32;14.70;;;3.20;;
35074;SDS011;21260;34.984;32.490;2023-04-03T13:57:03;17.83;;;3.27;;
35074;SDS011;21260;34.984;32.490;2023-04-03T13:59:41;13.63;;;3.22;;
35074;SDS011;21260;34.984;32.490;2023-04-03T14:07:11;14.20;;;3.00;;
35074;SDS011;21260;34.984;32.490;2023-04-03T14:09:41;17.15;;;3.67;;
35074;SDS011;21260;34.984;32.490;2023-04-03T14:12:12;12.65;;;3.05;;
35074;SDS011;21260;34.984;32.490;2023-04-03T14:14:45;12.68;;;3.25;;
35074;SDS011;21260;34.984;32.490;2023-04-03T14:17:22;15.43;;;3.20;;
35074;SDS011;21260;34.984;32.490;2023-04-03T14:19:51;12.82;;;3.00;;
35074;SDS011;21260;34.984;32.490;2023-04-03T14:22:30;13.98;;;2.92;;
35074;SDS011;21260;34.984;32.490;2023-04-03T14:24:59;11.00;;;2.97;;
35074;SDS011;21260;34.984;32.490;2023-04-03T14:27:31;14.55;;;3.25;;
35074;SDS011;21260;34.984;32.490;2023-04-03T14:30:07;16.38;;;3.70;;
35074;SDS011;21260;34.984;32.490;2023-04-03T14:32:52;12.57;;;3.22;;
35074;SDS011;21260;34.984;32.490;2023-04-03T14:35:19;10.48;;;3.00;;
35074;SDS011;21260;34.984;32.490;2023-04-03T14:37:47;14.50;;;2.60;;
35074;SDS011;21260;34.984;32.490;2023-04-03T14:40:19;16.63;;;3.50;;
35074;SDS011;21260;34.984;32.490;2023-04-03T14:42:52;15.80;;;3.57;;
35074;SDS011;21260;34.984;32.490;2023-04-03T14:45:21;13.37;;;3.70;;
35074;SDS011;21260;34.984;32.490;2023-04-03T14:47:49;12.30;;;3.33;;
35074;SDS011;21260;34.984;32.490;2023-04-03T14:50:24;13.82;;;2.90;;
35074;SDS011;21260;34.984;32.490;2023-04-03T14:52:53;15.93;;;3.35;;
35074;SDS011;21260;34.984;32.490;2023-04-03T14:55:24;14.20;;;3.25;;
35074;SDS011;21260;34.984;32.490;2023-04-03T14:57:52;11.87;;;2.90;;
35074;SDS011;21260;34.984;32.490;2023-04-03T15:00:20;12.02;;;3.05;;
35074;SDS011;21260;34.984;32.490;2023-04-03T15:02:48;11.82;;;2.97;;
35074;SDS011;21260;34.984;32.490;2023-04-03T15:05:14;14.82;;;3.10;;
35074;SDS011;21260;34.984;32.490;2023-04-03T15:07:43;13.68;;;3.30;;
35074;SDS011;21260;34.984;32.490;2023-04-03T15:10:21;10.98;;;3.00;;
35074;SDS011;21260;34.984;32.490;2023-04-03T15:12:51;12.87;;;3.27;;
35074;SDS011;21260;34.984;32.490;2023-04-03T15:15:18;13.83;;;4.03;;
35074;SDS011;21260;34.984;32.490;2023-04-03T15:17:47;12.10;;;3.10;;
35074;SDS011;21260;34.984;32.490;2023-04-03T15:20:20;12.02;;;3.42;;
35074;SDS011;21260;34.984;32.490;2023-04-03T15:22:51;12.20;;;3.88;;
35074;SDS011;21260;34.984;32.490;2023-04-03T15:25:18;10.95;;;3.00;;
35074;SDS011;21260;34.984;32.490;2023-04-03T15:27:44;10.80;;;3.03;;
35074;SDS011;21260;34.984;32.490;2023-04-03T15:30:13;9.32;;;2.90;;
35074;SDS011;21260;34.984;32.490;2023-04-03T15:32:43;14.60;;;3.20;;
35074;SDS011;21260;34.984;32.490;2023-04-03T15:35:09;13.23;;;3.45;;
35074;SDS011;21260;34.984;32.490;2023-04-03T15:37:36;12.85;;;3.15;;
35074;SDS011;21260;34.984;32.490;2023-04-03T15:40:03;10.50;;;2.90;;
35074;SDS011;21260;34.984;32.490;2023-04-03T15:42:33;7.85;;;2.90;;
35074;SDS011;21260;34.984;32.490;2023-04-03T15:44:59;15.85;;;3.15;;
35074;SDS011;21260;34.984;32.490;2023-04-03T15:47:26;11.52;;;3.00;;
35074;SDS011;21260;34.984;32.490;2023-04-03T15:49:53;15.27;;;3.30;;
35074;SDS011;21260;34.984;32.490;2023-04-03T15:52:21;13.60;;;3.42;;
35074;SDS011;21260;34.984;32.490;2023-04-03T15:54:47;14.50;;;3.25;;
35074;SDS011;21260;34.984;32.490;2023-04-03T15:57:13;16.10;;;3.35;;
35074;SDS011;21260;34.984;32.490;2023-04-03T15:59:40;13.32;;;3.50;;
35074;SDS011;21260;34.984;32.490;2023-04-03T16:02:06;15.63;;;3.67;;
35074;SDS011;21260;34.984;32.490;2023-04-03T16:04:35;16.77;;;3.67;;
35074;SDS011;21260;34.984;32.490;2023-04-03T16:07:02;16.00;;;3.40;;
35074;SDS011;21260;34.984;32.490;2023-04-03T16:09:29;12.93;;;3.17;;
35074;SDS011;21260;34.984;32.490;2023-04-03T16:11:59;10.95;;;2.65;;
35074;SDS011;21260;34.984;32.490;2023-04-03T16:14:27;11.90;;;2.90;;
35074;SDS011;21260;34.984;32.490;2023-04-03T16:16:55;9.33;;;2.67;;
35074;SDS011;21260;34.984;32.490;2023-04-03T16:19:23;7.75;;;2.80;;
35074;SDS011;21260;34.984;32.490;2023-04-03T16:21:50;10.25;;;2.83;;
35074;SDS011;21260;34.984;32.490;2023-04-03T16:24:16;10.98;;;3.17;;
35074;SDS011;21260;34.984;32.490;2023-04-03T16:26:42;11.55;;;3.20;;
35074;SDS011;21260;34.984;32.490;2023-04-03T16:29:08;9.13;;;2.97;;
35074;SDS011;21260;34.984;32.490;2023-04-03T16:31:35;11.48;;;2.97;;
35074;SDS011;21260;34.984;32.490;2023-04-03T16:34:01;9.43;;;2.78;;
35074;SDS011;21260;34.984;32.490;2023-04-03T16:36:27;7.13;;;2.70;;
35074;SDS011;21260;34.984;32.490;2023-04-03T16:38:54;10.53;;;2.80;;
35074;SDS011;21260;34.984;32.490;2023-04-03T16:41:20;8.93;;;2.78;;
35074;SDS011;21260;34.984;32.490;2023-04-03T16:43:47;9.90;;;2.85;;
35074;SDS011;21260;34.984;32.490;2023-04-03T16:46:15;8.65;;;2.90;;
35074;SDS011;21260;34.984;32.490;2023-04-03T16:48:42;11.07;;;2.83;;
35074;SDS011;21260;34.984;32.490;2023-04-03T16:51:08;10.07;;;3.13;;
35074;SDS011;21260;34.984;32.490;2023-04-03T16:53:34;7.28;;;2.67;;
35074;SDS011;21260;34.984;32.490;2023-04-03T16:56:01;8.90;;;2.85;;
35074;SDS011;21260;34.984;32.490;2023-04-03T16:58:27;10.93;;;2.90;;
35074;SDS011;21260;34.984;32.490;2023-04-03T17:00:53;7.55;;;2.55;;
35074;SDS011;21260;34.984;32.490;2023-04-03T17:03:20;11.40;;;3.00;;
35074;SDS011;21260;34.984;32.490;2023-04-03T17:05:50;11.07;;;3.15;;
35074;SDS011;21260;34.984;32.490;2023-04-03T17:08:17;8.20;;;2.85;;
35074;SDS011;21260;34.984;32.490;2023-04-03T17:10:43;11.50;;;3.03;;
35074;SDS011;21260;34.984;32.490;2023-04-03T17:13:10;10.40;;;2.63;;
35074;SDS011;21260;34.984;32.490;2023-04-03T17:15:36;10.00;;;3.08;;
35074;SDS011;21260;34.984;32.490;2023-04-03T17:18:03;7.78;;;2.80;;